Time;durP1;ratioP1;P1;durP2;ratioP2;P2;SDS_P1;SDS_P2;PMS_P1;PMS_P2;Temp;Humidity;BMP_temperature;BMP_pressure;BME280_temperature;BME280_humidity;BME280_pressure;Samples;Min_cycle;Max_cycle;Signal;HPM_P1;HPM_P2
2022/05/06 00:00:04;;;;;;;35.33;26.13;;;;;;;11.89;nan;100108.66;4956755;28;20319;-72
2022/05/06 00:02:30;;;;;;;41.25;31.38;;;;;;;11.91;nan;100109.41;4958257;28;20487;-72
2022/05/06 00:04:55;;;;;;;41.77;27.10;;;;;;;11.91;nan;100105.00;4949601;28;20208;-72
2022/05/06 00:07:21;;;;;;;39.87;25.80;;;;;;;11.90;nan;100105.91;4954776;28;20208;-72
2022/05/06 00:09:46;;;;;;;35.53;27.40;;;;;;;11.89;nan;100113.94;4955806;28;20311;-72
2022/05/06 00:12:13;;;;;;;37.40;26.60;;;;;;;11.83;nan;100120.38;4965371;28;20295;-72
2022/05/06 00:14:41;;;;;;;37.72;27.90;;;;;;;11.81;nan;100118.78;4954175;28;20661;-72
2022/05/06 00:17:07;;;;;;;35.72;26.83;;;;;;;11.79;nan;100115.38;4953105;28;20711;-72
2022/05/06 00:19:32;;;;;;;38.37;27.40;;;;;;;11.77;nan;100112.84;4959196;28;20216;-72
2022/05/06 00:21:58;;;;;;;37.20;24.80;;;;;;;11.77;nan;100106.72;4950989;28;20609;-72
2022/05/06 00:24:23;;;;;;;40.20;29.27;;;;;;;11.76;nan;100105.88;4949215;28;20761;-71
2022/05/06 00:26:49;;;;;;;36.47;26.30;;;;;;;11.78;nan;100103.19;4959097;28;20622;-71
2022/05/06 00:29:14;;;;;;;35.43;26.13;;;;;;;11.79;nan;100102.22;4972757;28;20561;-72
2022/05/06 00:31:40;;;;;;;38.80;28.73;;;;;;;11.81;nan;100102.97;4959092;28;20200;-71
2022/05/06 00:34:06;;;;;;;43.67;28.57;;;;;;;11.79;nan;100099.59;4957840;28;20625;-71
2022/05/06 00:36:32;;;;;;;35.65;27.83;;;;;;;11.78;nan;100101.38;4950965;28;20983;-71
2022/05/06 00:38:57;;;;;;;40.67;26.80;;;;;;;11.79;nan;100104.84;4952155;28;20228;-72
2022/05/06 00:41:23;;;;;;;39.83;27.90;;;;;;;11.80;nan;100096.00;4952437;28;20212;-72
2022/05/06 00:43:49;;;;;;;35.77;27.07;;;;;;;11.80;nan;100093.38;4966052;28;20466;-71
2022/05/06 00:46:15;;;;;;;37.30;26.40;;;;;;;11.80;nan;100091.63;4960826;28;20307;-72
2022/05/06 00:48:44;;;;;;;36.10;25.73;;;;;;;11.81;nan;100100.34;4961130;28;20232;-71
2022/05/06 00:51:11;;;;;;;32.80;24.52;;;;;;;11.79;nan;100096.97;4958361;28;20736;-71
2022/05/06 00:53:38;;;;;;;32.67;26.13;;;;;;;11.76;nan;100099.78;4972502;28;20207;-71
2022/05/06 00:56:07;;;;;;;35.33;25.45;;;;;;;11.74;nan;100099.88;4951195;28;20223;-71
2022/05/06 00:58:33;;;;;;;34.58;24.60;;;;;;;11.73;nan;100093.75;4957829;28;20549;-71
2022/05/06 01:00:58;;;;;;;29.80;24.30;;;;;;;11.73;nan;100096.38;4956069;28;20614;-72
2022/05/06 01:03:24;;;;;;;40.60;29.98;;;;;;;11.78;nan;100084.75;4969788;28;21007;-71
2022/05/06 01:05:50;;;;;;;35.73;26.50;;;;;;;11.73;nan;100085.88;4961620;28;20685;-71
2022/05/06 01:08:16;;;;;;;42.37;27.40;;;;;;;11.70;nan;100085.22;4960481;28;20546;-71
2022/05/06 01:10:42;;;;;;;32.35;25.15;;;;;;;11.68;nan;100092.34;4973563;28;20958;-71
2022/05/06 01:13:08;;;;;;;33.53;24.17;;;;;;;11.65;nan;100093.38;4952143;28;20216;-71
2022/05/06 01:15:33;;;;;;;33.20;22.30;;;;;;;11.63;nan;100084.72;4974464;28;20902;-71
2022/05/06 01:18:22;;;;;;;38.53;25.38;;;;;;;11.61;nan;100083.13;4975490;28;21014;-71
2022/05/06 01:20:51;;;;;;;39.03;24.87;;;;;;;11.59;nan;100085.88;4956652;28;20259;-71
2022/05/06 01:23:19;;;;;;;30.60;22.95;;;;;;;11.57;nan;100085.09;4949887;28;20224;-71
2022/05/06 01:25:46;;;;;;;32.03;22.40;;;;;;;11.55;nan;100086.97;4952664;28;20201;-71
2022/05/06 01:28:13;;;;;;;32.88;23.35;;;;;;;11.55;nan;100086.97;4957365;28;20235;-71
2022/05/06 01:30:40;;;;;;;30.23;24.17;;;;;;;11.55;nan;100086.13;4957558;28;20240;-71
2022/05/06 01:33:10;;;;;;;39.55;23.83;;;;;;;11.51;nan;100085.47;4951757;28;20221;-71
2022/05/06 01:35:46;;;;;;;31.67;23.60;;;;;;;11.49;nan;100084.72;4952233;28;20224;-71
2022/05/06 01:38:33;;;;;;;29.42;21.85;;;;;;;11.47;nan;100086.59;4955661;28;20259;-71
2022/05/06 01:41:04;;;;;;;35.05;23.70;;;;;;;11.48;nan;100093.56;4953711;28;20256;-71
2022/05/06 01:43:44;;;;;;;34.10;23.58;;;;;;;11.45;nan;100083.19;4952607;28;20292;-71
2022/05/06 01:46:16;;;;;;;30.65;25.13;;;;;;;11.45;nan;100085.81;4951149;28;20212;-71
2022/05/06 01:48:50;;;;;;;31.88;21.58;;;;;;;11.48;nan;100096.19;4959081;28;20220;-71
2022/05/06 01:51:17;;;;;;;31.75;22.95;;;;;;;11.47;nan;100084.78;4954420;28;20216;-72
2022/05/06 01:53:43;;;;;;;36.70;23.05;;;;;;;11.47;nan;100086.59;4969207;28;20196;-71
2022/05/06 01:56:09;;;;;;;34.53;25.60;;;;;;;11.46;nan;100082.28;4957553;28;20236;-71
2022/05/06 01:58:39;;;;;;;38.33;22.85;;;;;;;11.41;nan;100084.31;4955974;28;20248;-71
2022/05/06 02:01:05;;;;;;;34.88;25.55;;;;;;;11.41;nan;100079.06;4955219;28;20260;-71
2022/05/06 02:06:18;;;;;;;32.10;22.88;;;;;;;11.42;nan;100081.63;4955759;28;20208;-71
2022/05/06 02:08:50;;;;;;;32.47;21.15;;;;;;;11.42;nan;100083.38;4973276;28;20311;-71
2022/05/06 02:11:21;;;;;;;39.25;24.27;;;;;;;11.43;nan;100088.56;4967058;28;20229;-71
2022/05/06 02:13:47;;;;;;;35.43;23.10;;;;;;;11.43;nan;100093.81;4954299;28;20703;-71
2022/05/06 02:16:21;;;;;;;39.53;21.95;;;;;;;11.43;nan;100083.31;4957413;28;20227;-71
2022/05/06 02:19:07;;;;;;;33.53;24.45;;;;;;;11.42;nan;100078.13;4950916;28;20255;-72
2022/05/06 02:21:52;;;;;;;32.10;21.95;;;;;;;11.42;nan;100086.00;4975299;28;20215;-72
2022/05/06 02:24:39;;;;;;;28.67;22.30;;;;;;;11.37;nan;100077.53;4957709;28;20216;-71
2022/05/06 02:27:13;;;;;;;35.63;23.15;;;;;;;11.34;nan;100072.47;4978719;28;20618;-71
2022/05/06 02:33:12;;;;;;;30.00;20.42;;;;;;;11.36;nan;100075.84;4955460;28;20232;-71
2022/05/06 02:35:14;;;;;;;32.47;22.23;;;;;;;11.36;nan;100076.69;4958766;28;20255;-71
2022/05/06 02:37:40;;;;;;;29.27;21.15;;;;;;;11.35;nan;100072.38;4955913;28;20694;-71
2022/05/06 02:40:08;;;;;;;31.98;22.48;;;;;;;11.34;nan;100081.22;4970273;28;20228;-71
2022/05/06 02:42:34;;;;;;;29.45;20.58;;;;;;;11.34;nan;100069.84;4959162;28;20775;-71
2022/05/06 02:45:00;;;;;;;29.70;21.47;;;;;;;11.34;nan;100062.81;4959286;28;20666;-71
2022/05/06 02:47:25;;;;;;;33.10;22.87;;;;;;;11.35;nan;100075.03;4954948;28;20573;-71
2022/05/06 02:49:52;;;;;;;30.47;21.80;;;;;;;11.36;nan;100074.06;4958303;28;20228;-71
2022/05/06 02:52:18;;;;;;;34.95;24.10;;;;;;;11.35;nan;100068.91;4960483;28;20204;-71
2022/05/06 02:54:45;;;;;;;30.10;21.77;;;;;;;11.34;nan;100068.06;4974919;28;20212;-71
2022/05/06 02:57:15;;;;;;;34.45;21.08;;;;;;;11.32;nan;100069.94;4959339;28;20339;-71
2022/05/06 02:59:42;;;;;;;27.70;19.80;;;;;;;11.30;nan;100070.03;4958134;28;20228;-71
2022/05/06 03:02:08;;;;;;;39.67;24.53;;;;;;;11.29;nan;100070.97;4961110;28;20986;-71
2022/05/06 03:04:33;;;;;;;29.40;22.67;;;;;;;11.27;nan;100064.94;4960419;28;20247;-71
2022/05/06 03:07:00;;;;;;;27.10;20.38;;;;;;;11.28;nan;100061.38;4962989;28;20205;-71
2022/05/06 03:09:35;;;;;;;29.45;21.05;;;;;;;11.29;nan;100060.44;4974967;28;20220;-71
2022/05/06 03:12:01;;;;;;;34.25;21.60;;;;;;;11.29;nan;100055.19;4974282;28;20251;-71
2022/05/06 03:14:27;;;;;;;32.13;20.70;;;;;;;11.33;nan;100065.53;4975248;28;20262;-71
2022/05/06 03:17:06;;;;;;;28.85;20.95;;;;;;;11.30;nan;100064.75;4973835;28;20278;-71
2022/05/06 03:19:32;;;;;;;27.03;20.60;;;;;;;11.28;nan;100063.16;4959664;28;20612;-71
2022/05/06 03:21:58;;;;;;;26.53;19.97;;;;;;;11.24;nan;100057.25;4959666;28;20274;-71
2022/05/06 03:24:24;;;;;;;27.80;19.63;;;;;;;11.23;nan;100059.94;4960726;28;21020;-72
2022/05/06 03:26:49;;;;;;;30.13;19.40;;;;;;;11.22;nan;100055.66;4958269;28;20284;-72
2022/05/06 03:29:15;;;;;;;25.73;20.30;;;;;;;11.20;nan;100058.34;4959874;28;20328;-72
2022/05/06 03:31:41;;;;;;;28.40;20.00;;;;;;;11.23;nan;100052.06;4974257;28;20204;-72
2022/05/06 03:34:09;;;;;;;24.95;19.80;;;;;;;11.21;nan;100046.91;4959084;28;20201;-72
2022/05/06 03:36:41;;;;;;;29.77;21.95;;;;;;;11.19;nan;100053.19;4974028;28;20291;-71
2022/05/06 03:39:10;;;;;;;33.80;20.60;;;;;;;11.19;nan;100058.47;4974568;28;20315;-72
2022/05/06 03:41:43;;;;;;;34.83;21.30;;;;;;;11.19;nan;100054.03;4958887;28;20670;-71
2022/05/06 03:44:09;;;;;;;31.58;20.70;;;;;;;11.19;nan;100048.78;4958354;28;20213;-71
2022/05/06 03:46:38;;;;;;;33.88;20.55;;;;;;;11.19;nan;100053.19;4957894;28;20204;-71
2022/05/06 03:49:04;;;;;;;31.25;22.17;;;;;;;11.16;nan;100051.59;4958917;28;20290;-72
2022/05/06 03:51:31;;;;;;;36.08;21.65;;;;;;;11.16;nan;100059.47;4957766;28;20717;-72
2022/05/06 03:54:07;;;;;;;30.52;20.88;;;;;;;11.17;nan;100058.53;4957475;28;20224;-71
2022/05/06 03:56:33;;;;;;;30.50;19.52;;;;;;;11.17;nan;100052.44;4975983;28;20660;-72
2022/05/06 03:59:03;;;;;;;26.70;19.30;;;;;;;11.16;nan;100059.47;4973981;28;20225;-71
2022/05/06 04:01:30;;;;;;;32.17;20.23;;;;;;;11.18;nan;100054.13;4974170;28;20665;-71
2022/05/06 04:03:56;;;;;;;29.67;21.73;;;;;;;11.20;nan;100054.88;4958473;28;20200;-72
2022/05/06 04:06:26;;;;;;;24.60;18.50;;;;;;;11.22;nan;100060.91;4960155;28;20290;-72
2022/05/06 04:08:54;;;;;;;31.67;21.65;;;;;;;11.21;nan;100057.44;4960186;28;20739;-72
2022/05/06 04:11:20;;;;;;;32.20;20.85;;;;;;;11.22;nan;100058.28;4963927;28;20586;-71
2022/05/06 04:13:49;;;;;;;29.02;20.77;;;;;;;11.23;nan;100070.47;4956560;28;20574;-72
2022/05/06 04:16:15;;;;;;;32.20;19.30;;;;;;;11.22;nan;100068.78;4958065;28;20961;-72
2022/05/06 04:18:42;;;;;;;32.35;21.90;;;;;;;11.20;nan;100068.88;4956495;28;20205;-72
2022/05/06 04:23:55;;;;;;;29.50;21.35;;;;;;;11.16;nan;100080.50;4973986;28;20223;-72
2022/05/06 04:26:21;;;;;;;27.00;19.65;;;;;;;11.15;nan;100078.84;4957334;28;20324;-72
2022/05/06 04:28:52;;;;;;;31.17;22.17;;;;;;;11.16;nan;100079.69;4969701;28;20236;-71
2022/05/06 04:31:17;;;;;;;31.80;22.00;;;;;;;11.20;nan;100078.53;4953213;28;20587;-72
2022/05/06 04:33:45;;;;;;;33.45;22.60;;;;;;;11.24;nan;100080.06;4975774;28;20626;-72
2022/05/06 04:36:19;;;;;;;36.47;23.08;;;;;;;11.29;nan;100086.75;4959911;28;20359;-71
2022/05/06 04:38:49;;;;;;;31.63;22.70;;;;;;;11.32;nan;100075.19;4957437;28;20196;-72
2022/05/06 04:41:16;;;;;;;30.70;21.13;;;;;;;11.30;nan;100080.53;4954777;28;20204;-72
2022/05/06 04:43:42;;;;;;;34.10;20.77;;;;;;;11.29;nan;100076.22;4956847;28;20215;-72
2022/05/06 04:46:07;;;;;;;27.50;20.37;;;;;;;11.29;nan;100083.28;4970408;28;20205;-72
2022/05/06 04:48:35;;;;;;;39.63;22.33;;;;;;;11.28;nan;100084.19;4955812;28;20224;-72
2022/05/06 04:51:04;;;;;;;29.65;21.05;;;;;;;11.24;nan;100087.97;4954506;28;20212;-71
2022/05/06 04:53:29;;;;;;;37.42;24.58;;;;;;;11.26;nan;100084.31;4957621;28;20231;-72
2022/05/06 04:55:56;;;;;;;29.35;22.65;;;;;;;11.28;nan;100078.94;4957743;28;20701;-73
2022/05/06 04:58:31;;;;;;;32.70;25.20;;;;;;;11.32;nan;100084.88;4955681;28;20251;-73
2022/05/06 05:00:58;;;;;;;33.10;23.35;;;;;;;11.33;nan;100091.81;4954254;28;20219;-73
2022/05/06 05:03:23;;;;;;;30.93;21.83;;;;;;;11.34;nan;100089.13;4957704;28;20215;-73
2022/05/06 05:05:51;;;;;;;33.65;22.23;;;;;;;11.32;nan;100085.72;4955053;28;20212;-73
2022/05/06 05:08:18;;;;;;;33.88;23.08;;;;;;;11.33;nan;100086.56;4957865;28;20765;-72
2022/05/06 05:10:47;;;;;;;24.50;18.48;;;;;;;11.30;nan;100091.06;4956011;28;20236;-73
2022/05/06 05:13:14;;;;;;;29.30;22.80;;;;;;;11.26;nan;100097.44;4956317;28;20578;-73
2022/05/06 05:15:39;;;;;;;36.90;23.23;;;;;;;11.27;nan;100099.13;4958428;28;20204;-72
2022/05/06 05:18:06;;;;;;;32.33;21.43;;;;;;;11.29;nan;100102.53;4959283;28;20885;-73
2022/05/06 05:20:33;;;;;;;30.02;22.50;;;;;;;11.29;nan;100106.94;4954927;28;20676;-73
2022/05/06 05:22:59;;;;;;;33.05;23.65;;;;;;;11.28;nan;100106.06;4975807;28;20215;-72
2022/05/06 05:25:26;;;;;;;32.50;22.93;;;;;;;11.27;nan;100109.66;4962016;28;20243;-72
2022/05/06 05:27:52;;;;;;;42.63;25.60;;;;;;;11.29;nan;100107.78;4960302;28;20531;-72
2022/05/06 05:30:27;;;;;;;35.33;23.60;;;;;;;11.30;nan;100106.00;4964129;28;20728;-72
2022/05/06 05:32:54;;;;;;;41.00;29.15;;;;;;;11.35;nan;100105.75;4960035;28;20512;-72
2022/05/06 05:35:20;;;;;;;37.47;23.90;;;;;;;11.39;nan;100101.97;4961550;28;20764;-72
2022/05/06 05:37:53;;;;;;;36.45;25.15;;;;;;;11.41;nan;100097.47;4971043;28;20448;-72
2022/05/06 05:40:19;;;;;;;32.75;24.67;;;;;;;11.43;nan;100096.44;4969948;28;20224;-78
2022/05/06 05:42:45;;;;;;;41.20;24.53;;;;;;;11.46;nan;100092.78;4964179;28;20211;-76
2022/05/06 05:50:45;;;;;;;34.53;24.38;;;;;;;11.41;nan;100092.22;4949869;28;20238;-73
2022/05/06 05:53:12;;;;;;;31.05;22.00;;;;;;;11.40;nan;100098.44;4951655;28;20205;-72
2022/05/06 05:55:39;;;;;;;30.88;21.85;;;;;;;11.35;nan;100100.47;4986804;28;20226;-72
2022/05/06 05:58:08;;;;;;;32.78;24.80;;;;;;;11.35;nan;100095.22;4993567;28;20200;-73
2022/05/06 06:00:36;;;;;;;29.95;23.05;;;;;;;11.37;nan;100099.44;4970147;28;20248;-73
2022/05/06 06:03:03;;;;;;;41.70;29.10;;;;;;;11.42;nan;100099.16;4985550;28;20530;-72
2022/05/06 06:05:32;;;;;;;37.03;25.98;;;;;;;11.39;nan;100100.19;4972181;28;20479;-72
2022/05/06 06:07:58;;;;;;;38.17;26.27;;;;;;;11.41;nan;100105.38;4989585;28;20200;-72
2022/05/06 06:10:24;;;;;;;34.40;25.43;;;;;;;11.44;nan;100102.56;4969822;28;20257;-72
2022/05/06 06:12:49;;;;;;;32.77;22.57;;;;;;;11.49;nan;100103.13;4983832;28;20211;-72
2022/05/06 06:15:16;;;;;;;36.03;25.85;;;;;;;11.52;nan;100102.94;4971671;28;20227;-72
2022/05/06 06:17:43;;;;;;;35.40;24.15;;;;;;;11.53;nan;100104.66;4974170;28;20796;-73
2022/05/06 06:20:10;;;;;;;34.25;24.17;;;;;;;11.52;nan;100105.56;4990171;28;20223;-72
2022/05/06 06:22:41;;;;;;;38.65;26.20;;;;;;;11.53;nan;100112.53;4970014;28;20200;-72
2022/05/06 06:25:08;;;;;;;38.60;27.45;;;;;;;11.54;nan;100106.34;4971258;28;20200;-73
2022/05/06 06:27:35;;;;;;;38.13;26.38;;;;;;;11.55;nan;100101.91;4967767;28;20212;-72
2022/05/06 06:30:05;;;;;;;41.70;31.00;;;;;;;11.60;nan;100107.75;4980880;28;20492;-72
2022/05/06 06:32:32;;;;;;;35.42;28.00;;;;;;;11.59;nan;100108.69;4983267;28;20302;-72
2022/05/06 06:34:58;;;;;;;39.40;27.90;;;;;;;11.59;nan;100109.53;4971669;28;20834;-71
2022/05/06 06:37:31;;;;;;;41.42;28.98;;;;;;;11.60;nan;100102.50;4983935;28;20747;-72
2022/05/06 06:39:58;;;;;;;34.65;24.88;;;;;;;11.60;nan;100103.31;4988530;28;20216;-72
2022/05/06 06:42:25;;;;;;;38.33;25.90;;;;;;;11.60;nan;100099.84;4973800;28;20247;-73
2022/05/06 06:45:10;;;;;;;36.47;25.67;;;;;;;11.60;nan;100100.69;4971691;28;20711;-73
2022/05/06 06:47:51;;;;;;;33.80;24.80;;;;;;;11.64;nan;100111.91;4970350;28;20226;-71
2022/05/06 06:50:30;;;;;;;32.72;24.55;;;;;;;11.66;nan;100105.59;4970685;28;20270;-71
2022/05/06 06:53:12;;;;;;;29.75;21.33;;;;;;;11.69;nan;100109.81;4979391;28;20207;-72
2022/05/06 06:55:37;;;;;;;33.73;24.50;;;;;;;11.69;nan;100105.44;4978150;28;20200;-72
2022/05/06 06:58:03;;;;;;;38.80;26.40;;;;;;;11.72;nan;100112.28;4976662;28;20322;-72
2022/05/06 07:00:29;;;;;;;32.90;24.80;;;;;;;11.75;nan;100114.72;4976804;28;20211;-73
2022/05/06 07:02:56;;;;;;;44.70;31.10;;;;;;;11.77;nan;100117.25;4979285;28;20514;-72
2022/05/06 07:05:22;;;;;;;38.90;26.98;;;;;;;11.81;nan;100111.72;4979346;28;20231;-72
2022/05/06 07:13:17;;;;;;;31.10;23.40;;;;;;;11.99;nan;100107.16;4977628;28;20295;-72
2022/05/06 07:15:43;;;;;;;36.67;24.83;;;;;;;12.02;nan;100106.13;4979284;28;20208;-72
2022/05/06 07:18:08;;;;;;;41.57;29.17;;;;;;;12.10;nan;100109.97;4978493;28;20247;-72
2022/05/06 07:20:33;;;;;;;39.10;28.10;;;;;;;12.24;nan;100103.00;4978901;28;20228;-71
2022/05/06 07:22:59;;;;;;;39.53;25.97;;;;;;;12.37;nan;100107.41;4977510;28;20771;-73
2022/05/06 07:25:25;;;;;;;44.00;30.50;;;;;;;12.47;nan;100105.00;4977231;28;20267;-73
2022/05/06 07:27:50;;;;;;;39.37;24.03;;;;;;;12.55;nan;100108.00;4980167;28;20215;-73
2022/05/06 07:30:15;;;;;;;35.30;22.50;;;;;;;12.55;nan;100110.63;4972641;28;20666;-71
2022/05/06 07:32:41;;;;;;;41.57;27.90;;;;;;;12.58;nan;100109.59;4973713;28;20209;-72
2022/05/06 07:35:07;;;;;;;33.53;26.00;;;;;;;12.62;nan;100111.94;4977246;28;20247;-72
2022/05/06 07:37:33;;;;;;;33.80;24.33;;;;;;;12.69;nan;100111.53;4971499;28;20226;-72
2022/05/06 07:40:06;;;;;;;43.33;29.13;;;;;;;12.70;nan;100119.38;4972712;28;20744;-72
2022/05/06 07:42:31;;;;;;;34.65;25.48;;;;;;;12.71;nan;100112.31;4974541;28;20451;-72
2022/05/06 07:45:00;;;;;;;36.00;24.30;;;;;;;12.69;nan;100108.91;4967743;28;20309;-72
2022/05/06 07:47:26;;;;;;;44.28;25.80;;;;;;;12.76;nan;100107.59;4965656;28;20208;-73
2022/05/06 07:49:51;;;;;;;35.47;25.80;;;;;;;12.92;nan;100110.91;4973658;28;20270;-73
2022/05/06 07:52:17;;;;;;;37.80;23.90;;;;;;;13.10;nan;100108.88;4973849;28;20831;-73
2022/05/06 07:54:43;;;;;;;40.37;25.17;;;;;;;13.35;nan;100102.81;4975562;28;20323;-71
2022/05/06 07:57:08;;;;;;;30.87;23.97;;;;;;;13.53;nan;100102.53;4974351;28;20459;-71
2022/05/06 07:59:33;;;;;;;36.43;24.43;;;;;;;13.65;nan;100101.69;4988720;28;20230;-71
2022/05/06 08:04:48;;;;;;;37.13;24.55;;;;;;;13.72;nan;100101.16;4972092;28;20592;-71
2022/05/06 08:07:14;;;;;;;38.58;25.73;;;;;;;13.84;nan;100099.47;4975039;28;20207;-71
2022/05/06 08:09:39;;;;;;;34.03;25.77;;;;;;;14.03;nan;100095.56;4971423;28;20231;-70
2022/05/06 08:12:05;;;;;;;32.43;24.93;;;;;;;14.15;nan;100094.69;4975870;28;20195;-71
2022/05/06 08:14:31;;;;;;;36.90;25.50;;;;;;;14.17;nan;100096.25;4971469;28;20195;-72
2022/05/06 08:16:57;;;;;;;31.87;23.23;;;;;;;14.23;nan;100100.28;4974372;28;20426;-72
2022/05/06 08:19:22;;;;;;;34.63;23.47;;;;;;;14.30;nan;100098.88;4974249;28;20251;-71
2022/05/06 08:21:48;;;;;;;32.40;23.63;;;;;;;14.42;nan;100099.81;4971647;28;20699;-71
2022/05/06 08:24:14;;;;;;;35.35;23.45;;;;;;;14.53;nan;100096.44;4967127;28;20186;-71
2022/05/06 08:26:39;;;;;;;31.37;23.83;;;;;;;14.62;nan;100106.31;4967150;28;20206;-72
2022/05/06 08:29:05;;;;;;;31.67;25.07;;;;;;;14.65;nan;100103.47;4971733;28;20266;-72
2022/05/06 08:31:37;;;;;;;31.20;23.57;;;;;;;14.76;nan;100114.09;4968709;28;20209;-71
2022/05/06 08:34:07;;;;;;;28.85;22.88;;;;;;;14.84;nan;100108.25;4973806;28;20681;-72
2022/05/06 08:36:34;;;;;;;35.80;21.88;;;;;;;14.87;nan;100107.19;4964880;28;20539;-73
2022/05/06 08:39:01;;;;;;;30.95;21.45;;;;;;;14.79;nan;100110.38;4965493;28;20596;-72
2022/05/06 08:41:27;;;;;;;31.23;24.58;;;;;;;14.72;nan;100109.16;4967061;28;20812;-71
2022/05/06 08:43:53;;;;;;;32.20;22.83;;;;;;;14.73;nan;100111.69;4972586;28;20491;-74
2022/05/06 08:51:54;;;;;;;26.95;20.52;;;;;;;14.59;nan;100107.38;4959091;28;20243;-73
2022/05/06 08:54:21;;;;;;;30.65;23.20;;;;;;;14.52;nan;100110.56;4960749;28;20535;-71
2022/05/06 08:56:46;;;;;;;30.30;24.33;;;;;;;14.49;nan;100111.63;4964963;28;20204;-72
2022/05/06 08:59:12;;;;;;;26.47;22.00;;;;;;;14.52;nan;100121.13;4959847;28;20243;-73
2022/05/06 09:01:38;;;;;;;29.83;22.90;;;;;;;14.53;nan;100112.28;4961178;28;20207;-71
2022/05/06 09:04:04;;;;;;;27.37;21.73;;;;;;;14.56;nan;100102.34;4964657;28;20235;-71
2022/05/06 09:06:31;;;;;;;26.93;21.57;;;;;;;14.62;nan;100110.78;4971948;28;20508;-73
2022/05/06 09:08:58;;;;;;;28.10;21.55;;;;;;;14.76;nan;100115.91;4963359;28;20231;-71
2022/05/06 09:14:20;;;;;;;32.47;25.73;;;;;;;15.17;nan;100109.34;4972261;28;20205;-71
2022/05/06 09:16:46;;;;;;;31.05;23.25;;;;;;;15.29;nan;100113.72;4976114;28;20226;-71
2022/05/06 09:19:23;;;;;;;29.17;21.80;;;;;;;15.43;nan;100120.63;4971687;28;20219;-72
2022/05/06 09:22:01;;;;;;;24.05;19.70;;;;;;;15.52;nan;100116.44;4968115;28;20289;-72
2022/05/06 09:24:29;;;;;;;26.95;23.30;;;;;;;15.66;nan;100109.13;4970775;28;20213;-73
2022/05/06 09:26:59;;;;;;;27.45;22.70;;;;;;;15.98;nan;100105.81;4959368;28;20185;-73
2022/05/06 09:29:34;;;;;;;30.27;26.53;;;;;;;16.22;nan;100108.34;4961995;28;20962;-72
2022/05/06 09:32:21;;;;;;;27.05;21.13;;;;;;;16.27;nan;100114.13;4969019;28;21043;-74
2022/05/06 09:34:55;;;;;;;23.17;19.23;;;;;;;16.35;nan;100111.69;4961089;28;20200;-73
2022/05/06 09:37:39;;;;;;;25.00;22.27;;;;;;;16.46;nan;100105.53;4969241;28;20213;-73
2022/05/06 09:40:07;;;;;;;25.80;20.80;;;;;;;16.61;nan;100116.75;4963112;28;20277;-73
2022/05/06 09:42:33;;;;;;;26.38;20.67;;;;;;;16.82;nan;100111.50;4972166;28;20227;-74
2022/05/06 09:45:01;;;;;;;27.90;20.37;;;;;;;16.85;nan;100105.97;4964591;28;20385;-74
2022/05/06 09:47:26;;;;;;;22.27;19.27;;;;;;;16.77;nan;100114.56;4971895;28;20450;-74
2022/05/06 09:49:53;;;;;;;31.77;21.30;;;;;;;16.75;nan;100110.31;4973319;28;20224;-73
2022/05/06 09:52:19;;;;;;;28.10;22.40;;;;;;;16.77;nan;100109.25;4978392;28;20437;-74
2022/05/06 09:54:46;;;;;;;25.93;21.60;;;;;;;16.78;nan;100112.75;4973824;28;20485;-74
2022/05/06 09:57:18;;;;;;;25.30;17.20;;;;;;;16.75;nan;100110.31;4974319;28;20488;-74
2022/05/06 09:59:44;;;;;;;25.73;20.43;;;;;;;16.84;nan;100114.06;4967772;28;20556;-74
2022/05/06 10:02:10;;;;;;;27.57;21.80;;;;;;;16.98;nan;100106.63;4969045;28;20548;-74
2022/05/06 10:04:36;;;;;;;22.97;20.07;;;;;;;17.21;nan;100106.56;4973867;28;20481;-73
2022/05/06 10:07:06;;;;;;;25.00;18.13;;;;;;;17.47;nan;100105.22;4961351;28;20322;-74
2022/05/06 10:09:37;;;;;;;20.70;17.97;;;;;;;17.66;nan;100106.28;4962314;28;20538;-74
2022/05/06 10:12:05;;;;;;;27.97;19.53;;;;;;;17.74;nan;100093.22;4971603;28;20875;-74
2022/05/06 10:14:32;;;;;;;23.30;18.07;;;;;;;17.90;nan;100101.56;4971859;28;20943;-73
2022/05/06 10:16:58;;;;;;;19.73;15.17;;;;;;;18.04;nan;100099.53;4966189;28;20450;-73
2022/05/06 10:19:37;;;;;;;21.67;17.30;;;;;;;18.02;nan;100106.81;4970507;28;20444;-73
2022/05/06 10:22:03;;;;;;;26.93;21.20;;;;;;;17.85;nan;100106.44;4987664;28;20442;-73
2022/05/06 10:24:43;;;;;;;21.33;18.73;;;;;;;17.73;nan;100106.63;4969381;28;20192;-73
2022/05/06 10:32:25;;;;;;;21.07;18.70;;;;;;;17.69;nan;100103.38;4971273;28;20307;-73
2022/05/06 10:33:14;;;;;;;23.37;19.20;;;;;;;18.07;nan;100097.44;4969288;28;20437;-74
2022/05/06 10:35:42;;;;;;;27.13;20.30;;;;;;;18.31;nan;100097.13;4973214;28;20553;-74
2022/05/06 10:38:26;;;;;;;20.40;17.80;;;;;;;18.52;nan;100093.50;4967243;28;20620;-73
2022/05/06 10:41:02;;;;;;;20.07;17.60;;;;;;;18.71;nan;100090.03;4969812;28;20468;-74
2022/05/06 10:43:39;;;;;;;20.30;15.80;;;;;;;18.79;nan;100096.41;4970060;28;21025;-73
2022/05/06 10:46:05;;;;;;;19.80;16.10;;;;;;;18.67;nan;100081.50;4971804;28;20520;-74
2022/05/06 10:48:31;;;;;;;20.80;17.80;;;;;;;18.47;nan;100093.06;4973777;28;20581;-73
2022/05/06 10:51:20;;;;;;;20.43;17.27;;;;;;;18.27;nan;100090.38;4973376;28;20231;-74
2022/05/06 10:53:45;;;;;;;19.30;16.27;;;;;;;18.21;nan;100095.41;4969885;28;20250;-74
2022/05/06 10:56:12;;;;;;;20.10;15.23;;;;;;;18.12;nan;100092.56;4970534;28;20564;-73
2022/05/06 10:58:38;;;;;;;23.50;16.13;;;;;;;18.07;nan;100092.13;4967962;28;20461;-73
2022/05/06 11:01:04;;;;;;;21.53;15.10;;;;;;;18.12;nan;100089.06;4978334;28;20828;-74
2022/05/06 11:03:29;;;;;;;17.87;15.10;;;;;;;18.34;nan;100091.53;4980284;28;20217;-75
2022/05/06 11:05:54;;;;;;;15.83;14.23;;;;;;;18.53;nan;100089.88;4972024;28;20217;-76
2022/05/06 11:08:31;;;;;;;20.53;13.77;;;;;;;18.64;nan;100087.09;4968019;28;20226;-75
2022/05/06 11:10:56;;;;;;;16.30;14.53;;;;;;;18.54;nan;100103.03;4969840;28;20319;-75
2022/05/06 11:13:24;;;;;;;16.73;14.27;;;;;;;18.46;nan;100094.91;4969701;28;20456;-75
2022/05/06 11:15:49;;;;;;;17.63;15.27;;;;;;;18.41;nan;100097.13;4984830;28;20217;-75
2022/05/06 11:18:15;;;;;;;19.30;13.70;;;;;;;18.30;nan;100100.72;4970030;28;20465;-75
2022/05/06 11:20:40;;;;;;;14.53;13.13;;;;;;;18.13;nan;100104.88;4963534;28;20245;-75
2022/05/06 11:23:08;;;;;;;16.80;13.40;;;;;;;18.08;nan;100101.78;4975471;28;20605;-75
2022/05/06 11:25:36;;;;;;;14.80;13.07;;;;;;;18.13;nan;100098.72;4975271;28;20200;-75
2022/05/06 11:28:08;;;;;;;16.80;12.90;;;;;;;18.15;nan;100086.16;4975627;28;20521;-75
2022/05/06 11:30:35;;;;;;;18.27;12.97;;;;;;;18.10;nan;100091.84;4975344;28;20904;-75
2022/05/06 11:33:03;;;;;;;14.93;11.70;;;;;;;18.05;nan;100085.25;4981806;28;20439;-75
2022/05/06 11:35:33;;;;;;;13.60;10.87;;;;;;;18.12;nan;100079.28;4969271;28;20472;-75
2022/05/06 11:38:00;;;;;;;18.27;11.50;;;;;;;18.18;nan;100085.88;4961269;28;20895;-75
2022/05/06 11:42:57;;;;;;;13.40;11.23;;;;;;;18.11;nan;100074.09;4964343;28;20595;-75
2022/05/06 11:48:09;;;;;;;12.67;11.17;;;;;;;18.10;nan;100077.72;4961938;28;20437;-75
2022/05/06 11:50:36;;;;;;;14.70;10.63;;;;;;;18.14;nan;100077.31;4961609;28;21140;-75
2022/05/06 11:53:08;;;;;;;12.03;10.27;;;;;;;18.06;nan;100065.66;4965126;28;20545;-75
2022/05/06 11:55:35;;;;;;;16.37;13.17;;;;;;;18.02;nan;100069.59;4966101;28;20463;-76
2022/05/06 11:58:01;;;;;;;12.10;9.97;;;;;;;18.08;nan;100064.56;4961945;28;20448;-75
2022/05/06 12:00:29;;;;;;;18.00;10.90;;;;;;;18.15;nan;100062.22;4967070;28;20855;-74
2022/05/06 12:02:54;;;;;;;11.56;10.44;;;;;;;18.26;nan;100059.44;4980850;28;20466;-73
2022/05/06 12:05:21;;;;;;;11.80;10.00;;;;;;;18.39;nan;100050.34;4975429;28;20219;-73
2022/05/06 12:07:48;;;;;;;11.90;9.57;;;;;;;18.52;nan;100050.94;4969525;28;20464;-73